Terminal Aerodrome Forecast
Issued by NWS

Home | Current Version | Previous Version | Text Only | Print | Product List | Glossary On
Versions: 1 2 3 4 5 6 7 8 9 10 11 12 13 14
000
FTUS45 KRIW 171100
TAFLND
TAF
KLND 171124Z 1712/1812 VRB06KT P6SM FEW110 SCT250
     FM171900 25007KT P6SM SCT120 BKN250
     FM180100 24007KT P6SM SCT250=

USA.gov is the U.S. government's official web portal to all federal, state and local government web resources and services.